createdAt,value
2023-06-17T00:00:48.515Z,18.79
2023-06-17T00:03:15.624Z,18.66
2023-06-17T00:05:43.043Z,18.67
2023-06-17T00:08:09.737Z,18.61
2023-06-17T00:10:36.592Z,18.58
2023-06-17T00:13:03.681Z,18.55
2023-06-17T00:15:34.060Z,18.54
2023-06-17T00:18:01.998Z,18.53
2023-06-17T00:20:30.195Z,18.17
2023-06-17T00:22:57.051Z,18.43
2023-06-17T00:25:23.849Z,18.42
2023-06-17T00:27:50.679Z,18.41
2023-06-17T00:30:17.994Z,18.46
2023-06-17T00:32:45.158Z,18.47
2023-06-17T00:35:12.052Z,18.37
2023-06-17T00:37:38.884Z,18.44
2023-06-17T00:40:09.554Z,18.58
2023-06-17T00:42:37.455Z,18.33
2023-06-17T00:45:04.573Z,18.55
2023-06-17T00:47:31.576Z,18.60
2023-06-17T00:49:59.148Z,18.61
2023-06-17T00:52:41.216Z,18.62
2023-06-17T00:55:10.495Z,18.67
2023-06-17T00:57:38.724Z,18.59
2023-06-17T01:00:10.892Z,18.67
2023-06-17T01:02:41.676Z,18.54
2023-06-17T01:05:13.586Z,18.65
2023-06-17T01:08:09.511Z,18.62
2023-06-17T01:11:09.348Z,18.61
2023-06-17T01:13:37.283Z,18.51
2023-06-17T01:16:05.761Z,18.53
2023-06-17T01:18:33.675Z,18.42
2023-06-17T01:21:01.162Z,18.24
2023-06-17T01:23:36.179Z,18.39
2023-06-17T01:26:03.525Z,18.36
2023-06-17T01:28:31.233Z,18.19
2023-06-17T01:30:58.598Z,18.25
2023-06-17T01:33:26.585Z,18.19
2023-06-17T01:36:01.377Z,18.11
2023-06-17T01:38:35.854Z,18.01
2023-06-17T01:41:05.612Z,17.93
2023-06-17T01:43:35.436Z,17.82
2023-06-17T01:46:05.443Z,17.71
2023-06-17T01:48:32.255Z,17.59
2023-06-17T01:50:58.895Z,17.43
2023-06-17T01:53:28.423Z,16.98
2023-06-17T01:55:55.569Z,17.26
2023-06-17T01:58:22.438Z,17.20
2023-06-17T02:00:49.071Z,17.06
2023-06-17T02:03:17.255Z,17.04
2023-06-17T02:05:44.575Z,17.12
2023-06-17T02:08:15.261Z,17.03
2023-06-17T02:10:41.919Z,16.95
2023-06-17T02:13:11.404Z,16.79
2023-06-17T02:15:39.951Z,16.73
2023-06-17T02:18:07.036Z,16.54
2023-06-17T02:20:33.977Z,16.55
2023-06-17T02:23:02.156Z,16.61
2023-06-17T02:25:29.342Z,16.66
2023-06-17T02:27:56.162Z,16.71
2023-06-17T02:30:23.127Z,16.49
2023-06-17T02:32:50.125Z,16.54
2023-06-17T02:35:16.874Z,16.56
2023-06-17T02:37:44.244Z,16.72
2023-06-17T02:40:11.678Z,16.66
2023-06-17T02:42:39.360Z,16.72
2023-06-17T02:45:08.365Z,16.62
2023-06-17T02:47:35.115Z,16.68
2023-06-17T02:50:01.897Z,16.60
2023-06-17T02:52:31.861Z,16.61
2023-06-17T02:54:58.959Z,16.45
2023-06-17T02:57:25.792Z,16.47
2023-06-17T02:59:52.981Z,16.32
2023-06-17T03:02:19.814Z,16.37
2023-06-17T03:04:47.728Z,16.32
2023-06-17T03:07:16.831Z,16.24
2023-06-17T03:09:44.439Z,16.27
2023-06-17T03:12:12.212Z,16.27
2023-06-17T03:14:39.685Z,16.19
2023-06-17T03:17:13.106Z,16.22
2023-06-17T03:19:40.470Z,16.13
2023-06-17T03:22:08.153Z,16.15
2023-06-17T03:24:38.716Z,16.14
2023-06-17T03:27:05.751Z,16.16
2023-06-17T03:29:35.624Z,16.00
2023-06-17T03:32:03.518Z,16.07
2023-06-17T03:34:33.573Z,16.06
2023-06-17T03:37:05.851Z,16.03
2023-06-17T03:39:32.890Z,16.01
2023-06-17T03:41:59.594Z,15.82
2023-06-17T03:44:26.943Z,15.93
2023-06-17T03:46:53.819Z,15.93
2023-06-17T03:49:20.612Z,16.04
2023-06-17T03:51:48.663Z,15.82
2023-06-17T03:54:16.049Z,16.07
2023-06-17T03:56:43.104Z,16.14
2023-06-17T03:59:10.080Z,16.26
2023-06-17T04:01:36.945Z,16.40
2023-06-17T04:04:04.223Z,16.59
2023-06-17T04:06:31.438Z,16.72
2023-06-17T04:08:58.321Z,16.80
2023-06-17T04:11:24.957Z,16.80
2023-06-17T04:13:51.652Z,16.87
2023-06-17T04:16:18.342Z,16.90
2023-06-17T04:18:46.475Z,16.91
2023-06-17T04:21:13.418Z,16.92
2023-06-17T04:23:40.512Z,17.05
2023-06-17T04:26:07.727Z,17.11
2023-06-17T04:28:35.479Z,17.22
2023-06-17T04:31:02.710Z,17.32
2023-06-17T04:33:38.733Z,17.49
2023-06-17T04:36:09.236Z,17.60
2023-06-17T04:38:38.912Z,17.70
2023-06-17T04:41:06.885Z,17.93
2023-06-17T04:43:34.829Z,18.01
2023-06-17T04:46:02.300Z,18.13
2023-06-17T04:48:31.916Z,18.06
2023-06-17T04:50:59.316Z,18.18
2023-06-17T04:53:27.865Z,18.38
2023-06-17T04:55:55.121Z,18.43
2023-06-17T04:58:22.258Z,18.35
2023-06-17T05:00:52.398Z,18.53
2023-06-17T05:03:25.913Z,18.59
2023-06-17T05:05:55.594Z,18.62
2023-06-17T05:08:24.142Z,18.71
2023-06-17T05:10:51.080Z,18.80
2023-06-17T05:13:17.923Z,18.87
2023-06-17T05:15:44.896Z,18.92
2023-06-17T05:18:12.129Z,19.03
2023-06-17T05:20:40.149Z,19.27
2023-06-17T05:23:07.805Z,19.59
2023-06-17T05:25:34.523Z,19.86
2023-06-17T05:28:01.582Z,20.08
2023-06-17T05:30:31.855Z,20.39
2023-06-17T05:33:00.847Z,20.70
2023-06-17T05:35:28.627Z,20.97
2023-06-17T05:37:56.883Z,21.03
2023-06-17T05:40:23.770Z,21.25
2023-06-17T05:42:51.078Z,21.35
2023-06-17T05:45:18.250Z,21.66
2023-06-17T05:47:45.134Z,21.79
2023-06-17T05:50:12.049Z,22.26
2023-06-17T05:52:41.075Z,22.16
2023-06-17T05:55:08.334Z,22.36
2023-06-17T05:57:35.133Z,22.38
2023-06-17T06:00:01.819Z,22.49
2023-06-17T06:02:29.039Z,22.75
2023-06-17T06:04:55.713Z,22.91
2023-06-17T06:07:22.520Z,22.74
2023-06-17T06:09:49.486Z,22.97
2023-06-17T06:12:16.163Z,22.53
2023-06-17T06:14:42.762Z,22.67
2023-06-17T06:17:09.877Z,22.92
2023-06-17T06:19:36.686Z,22.83
2023-06-17T06:22:03.498Z,23.10
2023-06-17T06:24:30.322Z,23.17
2023-06-17T06:26:57.323Z,23.31
2023-06-17T06:29:24.135Z,23.34
2023-06-17T06:31:51.049Z,23.30
2023-06-17T06:34:19.433Z,23.18
2023-06-17T06:36:46.691Z,23.30
2023-06-17T06:39:15.532Z,23.35
2023-06-17T06:41:43.377Z,23.61
2023-06-17T06:44:37.956Z,23.71
2023-06-17T06:47:05.117Z,23.73
2023-06-17T06:49:31.796Z,23.95
2023-06-17T06:51:58.538Z,24.18
2023-06-17T06:54:25.482Z,24.46
2023-06-17T06:56:52.347Z,24.87
2023-06-17T06:59:19.327Z,25.36
2023-06-17T07:01:46.052Z,25.46
2023-06-17T07:04:12.824Z,25.77
2023-06-17T07:06:39.718Z,25.22
2023-06-17T07:09:09.735Z,25.25
2023-06-17T07:11:37.235Z,25.04
2023-06-17T07:14:04.150Z,25.25
2023-06-17T07:16:31.078Z,24.95
2023-06-17T07:18:57.881Z,24.83
2023-06-17T07:21:24.775Z,25.03
2023-06-17T07:23:52.339Z,24.91
2023-06-17T07:26:19.887Z,24.50
2023-06-17T07:28:47.010Z,24.40
2023-06-17T07:31:16.711Z,24.93
2023-06-17T07:33:43.580Z,25.44
2023-06-17T07:36:10.404Z,25.86
2023-06-17T07:38:37.311Z,26.32
2023-06-17T07:41:04.072Z,26.50
2023-06-17T07:43:31.186Z,27.18
2023-06-17T07:45:58.136Z,27.86
2023-06-17T07:48:24.863Z,28.09
2023-06-17T07:50:51.598Z,27.90
2023-06-17T07:53:18.421Z,27.96
2023-06-17T07:55:45.309Z,28.01
2023-06-17T07:58:11.970Z,28.43
2023-06-17T08:00:38.541Z,28.45
2023-06-17T08:03:06.465Z,28.72
2023-06-17T08:05:33.417Z,28.80
2023-06-17T08:08:00.146Z,28.83
2023-06-17T08:10:26.892Z,28.98
2023-06-17T08:12:53.755Z,29.19
2023-06-17T08:15:20.774Z,28.80
2023-06-17T08:17:49.626Z,29.07
2023-06-17T08:20:17.217Z,28.83
2023-06-17T08:22:44.000Z,28.36
2023-06-17T08:25:10.734Z,27.87
2023-06-17T08:27:38.671Z,27.93
2023-06-17T08:30:07.045Z,28.22
2023-06-17T08:32:33.827Z,28.29
2023-06-17T08:35:07.102Z,28.24
2023-06-17T08:37:34.725Z,28.24
2023-06-17T08:40:01.465Z,28.57
2023-06-17T08:42:28.588Z,29.01
2023-06-17T08:44:55.560Z,28.99
2023-06-17T08:47:22.454Z,29.14
2023-06-17T08:49:49.843Z,29.54
2023-06-17T08:52:16.893Z,29.90
2023-06-17T08:54:44.153Z,29.83
2023-06-17T08:57:14.645Z,30.32
2023-06-17T08:59:42.238Z,30.30
2023-06-17T09:02:11.702Z,30.00
2023-06-17T09:04:38.641Z,30.34
2023-06-17T09:07:05.849Z,30.60
2023-06-17T09:09:32.584Z,30.20
2023-06-17T09:12:03.149Z,29.91
2023-06-17T09:14:29.876Z,29.74
2023-06-17T09:16:56.675Z,29.51
2023-06-17T09:19:24.426Z,29.83
2023-06-17T09:21:51.236Z,30.19
2023-06-17T09:24:19.193Z,30.09
2023-06-17T09:26:46.132Z,30.50
2023-06-17T09:29:13.712Z,30.54
2023-06-17T09:31:56.989Z,30.63
2023-06-17T09:34:23.968Z,30.83
2023-06-17T09:36:56.160Z,31.18
2023-06-17T09:39:32.576Z,31.05
2023-06-17T09:42:08.914Z,30.77
2023-06-17T09:44:38.328Z,30.90
2023-06-17T09:47:09.712Z,30.99
2023-06-17T09:49:37.990Z,30.39
2023-06-17T09:52:10.327Z,30.47
2023-06-17T09:54:38.094Z,30.95
2023-06-17T09:57:08.659Z,30.74
2023-06-17T09:59:35.595Z,31.43
2023-06-17T10:02:02.350Z,31.33
2023-06-17T10:04:29.139Z,31.59
2023-06-17T10:06:59.196Z,32.14
2023-06-17T10:09:26.637Z,32.12
2023-06-17T10:11:56.844Z,31.44
2023-06-17T10:14:33.796Z,31.66
2023-06-17T10:17:03.198Z,31.36
2023-06-17T10:19:34.082Z,30.97
2023-06-17T10:22:04.676Z,30.83
2023-06-17T10:24:32.132Z,30.59
2023-06-17T10:29:36.742Z,30.62
2023-06-17T10:32:19.588Z,30.30
2023-06-17T10:35:08.191Z,30.36
2023-06-17T10:37:53.904Z,30.75
2023-06-17T10:40:28.759Z,31.11
2023-06-17T10:43:01.551Z,30.81
2023-06-17T10:45:32.489Z,30.66
2023-06-17T10:48:21.065Z,30.81
2023-06-17T10:50:58.860Z,31.29
2023-06-17T10:53:38.926Z,31.75
2023-06-17T10:56:07.953Z,31.56
2023-06-17T10:58:37.021Z,31.17
2023-06-17T11:01:06.815Z,31.69
2023-06-17T11:03:33.963Z,32.17
2023-06-17T11:06:05.593Z,32.29
2023-06-17T11:08:34.462Z,31.61
2023-06-17T11:11:08.043Z,31.97
2023-06-17T11:13:34.991Z,32.05
2023-06-17T11:16:01.742Z,31.88
2023-06-17T11:18:28.484Z,32.37
2023-06-17T11:20:55.469Z,32.60
2023-06-17T11:23:22.119Z,32.75
2023-06-17T11:25:53.854Z,33.00
2023-06-17T11:28:21.752Z,32.45
2023-06-17T11:30:50.591Z,32.06
2023-06-17T11:33:22.274Z,31.52
2023-06-17T11:35:52.408Z,31.80
2023-06-17T11:38:23.895Z,32.10
2023-06-17T11:40:58.817Z,32.41
2023-06-17T11:43:29.358Z,32.06
2023-06-17T11:46:03.797Z,32.40
2023-06-17T11:48:34.738Z,32.75
2023-06-17T11:51:01.664Z,32.49
2023-06-17T11:53:29.020Z,32.35
2023-06-17T11:56:03.758Z,31.91
2023-06-17T11:58:30.544Z,31.72
2023-06-17T12:01:07.056Z,30.87
2023-06-17T12:03:34.129Z,31.27
2023-06-17T12:06:01.566Z,31.46
2023-06-17T12:08:36.709Z,32.09
2023-06-17T12:11:10.710Z,32.50
2023-06-17T12:13:41.413Z,32.55
2023-06-17T12:16:12.087Z,32.76
2023-06-17T12:18:48.460Z,33.31
2023-06-17T12:21:15.247Z,33.74
2023-06-17T12:23:41.849Z,33.98
2023-06-17T12:26:10.739Z,33.33
2023-06-17T12:28:38.309Z,33.47
2023-06-17T12:31:05.048Z,33.37
2023-06-17T12:33:31.777Z,33.22
2023-06-17T12:35:58.967Z,33.45
2023-06-17T12:38:29.436Z,32.79
2023-06-17T12:40:56.213Z,32.95
2023-06-17T12:43:22.839Z,32.73
2023-06-17T12:45:49.680Z,32.38
2023-06-17T12:48:16.722Z,32.44
2023-06-17T12:50:44.421Z,32.40
2023-06-17T12:53:12.456Z,32.45
2023-06-17T12:55:45.588Z,32.75
2023-06-17T12:58:13.153Z,32.74
2023-06-17T13:00:40.942Z,33.08
2023-06-17T13:03:07.891Z,33.24
2023-06-17T13:05:34.539Z,33.05
2023-06-17T13:08:01.412Z,33.27
2023-06-17T13:10:28.625Z,33.51
2023-06-17T13:12:55.490Z,33.46
2023-06-17T13:15:22.381Z,33.43
2023-06-17T13:17:49.592Z,33.09
2023-06-17T13:20:16.606Z,33.25
2023-06-17T13:22:43.849Z,33.20
2023-06-17T13:25:10.692Z,33.41
2023-06-17T13:27:37.384Z,33.62
2023-06-17T13:30:04.486Z,33.48
2023-06-17T13:32:31.290Z,33.17
2023-06-17T13:34:57.864Z,33.08
2023-06-17T13:37:24.669Z,32.17
2023-06-17T13:39:51.294Z,32.40
2023-06-17T13:42:18.518Z,32.90
2023-06-17T13:44:45.642Z,32.97
2023-06-17T13:47:12.595Z,32.82
2023-06-17T13:49:39.252Z,32.83
2023-06-17T13:52:07.314Z,32.88
2023-06-17T13:54:34.214Z,32.69
2023-06-17T13:57:00.872Z,32.99
2023-06-17T13:59:27.841Z,33.28
2023-06-17T14:01:54.771Z,33.47
2023-06-17T14:04:21.880Z,33.22
2023-06-17T14:06:49.337Z,33.04
2023-06-17T14:09:16.136Z,32.93
2023-06-17T14:11:43.971Z,33.43
2023-06-17T14:14:10.768Z,33.36
2023-06-17T14:16:37.606Z,33.29
2023-06-17T14:19:04.494Z,33.03
2023-06-17T14:21:32.157Z,32.99
2023-06-17T14:24:12.123Z,32.77
2023-06-17T14:26:41.529Z,32.98
2023-06-17T14:29:10.029Z,33.39
2023-06-17T14:31:37.642Z,33.57
2023-06-17T14:34:04.494Z,33.91
2023-06-17T14:36:31.161Z,33.98
2023-06-17T14:39:00.057Z,33.85
2023-06-17T14:41:26.836Z,33.73
2023-06-17T14:43:53.654Z,33.64
2023-06-17T14:46:20.686Z,33.28
2023-06-17T14:48:47.702Z,33.33
2023-06-17T14:51:14.288Z,33.51
2023-06-17T14:53:43.769Z,33.65
2023-06-17T14:56:19.580Z,33.43
2023-06-17T14:58:46.485Z,33.33
2023-06-17T15:01:13.303Z,33.37
2023-06-17T15:03:39.982Z,33.65
2023-06-17T15:06:06.746Z,33.67
2023-06-17T15:08:36.590Z,33.57
2023-06-17T15:11:03.504Z,33.16
2023-06-17T15:13:30.357Z,33.12
2023-06-17T15:15:57.183Z,33.27
2023-06-17T15:18:23.793Z,33.82
2023-06-17T15:20:50.442Z,34.26
2023-06-17T15:23:17.194Z,34.11
2023-06-17T15:25:44.030Z,33.81
2023-06-17T15:28:12.170Z,33.97
2023-06-17T15:30:39.116Z,33.55
2023-06-17T15:33:05.875Z,33.73
2023-06-17T15:35:32.497Z,34.11
2023-06-17T15:37:59.156Z,33.89
2023-06-17T15:40:26.469Z,33.88
2023-06-17T15:42:56.703Z,33.33
2023-06-17T15:45:23.824Z,33.58
2023-06-17T15:47:51.156Z,33.50
2023-06-17T15:50:17.921Z,34.00
2023-06-17T15:52:44.797Z,33.90
2023-06-17T15:55:11.548Z,33.79
2023-06-17T15:57:38.608Z,33.83
2023-06-17T16:00:06.036Z,34.25
2023-06-17T16:02:39.014Z,33.65
2023-06-17T16:05:06.110Z,33.94
2023-06-17T16:07:33.925Z,33.82
2023-06-17T16:10:01.915Z,33.43
2023-06-17T16:12:28.674Z,32.57
2023-06-17T16:14:55.684Z,32.46
2023-06-17T16:17:22.450Z,32.17
2023-06-17T16:19:49.303Z,32.14
2023-06-17T16:22:16.135Z,32.63
2023-06-17T16:24:44.565Z,33.18
2023-06-17T16:27:12.064Z,33.61
2023-06-17T16:29:38.927Z,33.77
2023-06-17T16:32:06.105Z,33.89
2023-06-17T16:34:32.918Z,34.41
2023-06-17T16:36:59.689Z,34.37
2023-06-17T16:39:26.451Z,34.48
2023-06-17T16:41:53.336Z,34.60
2023-06-17T16:44:20.038Z,34.06
2023-06-17T16:46:49.854Z,34.26
2023-06-17T16:49:16.605Z,34.18
2023-06-17T16:51:43.471Z,33.71
2023-06-17T16:54:10.206Z,34.15
2023-06-17T16:56:37.522Z,34.63
2023-06-17T16:59:04.825Z,34.85
2023-06-17T17:01:31.621Z,34.44
2023-06-17T17:04:01.707Z,33.68
2023-06-17T17:06:28.451Z,33.55
2023-06-17T17:08:55.244Z,33.40
2023-06-17T17:11:21.899Z,33.28
2023-06-17T17:13:50.248Z,33.14
2023-06-17T17:16:18.233Z,33.05
2023-06-17T17:18:45.332Z,32.83
2023-06-17T17:21:13.075Z,32.61
2023-06-17T17:23:43.310Z,32.29
2023-06-17T17:26:13.769Z,32.31
2023-06-17T17:28:41.608Z,32.44
2023-06-17T17:31:09.168Z,33.10
2023-06-17T17:33:36.473Z,33.63
2023-06-17T17:36:03.227Z,33.11
2023-06-17T17:38:29.974Z,32.90
2023-06-17T17:40:56.917Z,32.67
2023-06-17T17:43:23.438Z,32.45
2023-06-17T17:45:50.207Z,32.48
2023-06-17T17:48:17.128Z,32.68
2023-06-17T17:50:43.771Z,32.62
2023-06-17T17:53:10.641Z,32.48
2023-06-17T17:55:37.377Z,32.11
2023-06-17T17:58:04.254Z,32.12
2023-06-17T18:00:30.769Z,31.68
2023-06-17T18:02:57.568Z,31.18
2023-06-17T18:05:24.334Z,30.77
2023-06-17T18:07:51.301Z,30.43
2023-06-17T18:10:17.923Z,30.25
2023-06-17T18:12:44.611Z,30.36
2023-06-17T18:15:12.020Z,30.16
2023-06-17T18:17:39.115Z,29.87
2023-06-17T18:20:09.251Z,29.62
2023-06-17T18:22:37.290Z,30.20
2023-06-17T18:25:05.622Z,29.84
2023-06-17T18:27:36.346Z,29.95
2023-06-17T18:30:04.927Z,29.83
2023-06-17T18:32:32.153Z,30.10
2023-06-17T18:34:59.058Z,29.98
2023-06-17T18:37:25.886Z,30.04
2023-06-17T18:39:52.644Z,29.95
2023-06-17T18:42:19.294Z,29.72
2023-06-17T18:44:46.176Z,29.21
2023-06-17T18:47:13.211Z,28.89
2023-06-17T18:49:39.977Z,28.57
2023-06-17T18:52:06.971Z,28.05
2023-06-17T18:54:33.929Z,27.92
2023-06-17T18:57:01.128Z,27.69
2023-06-17T18:59:27.964Z,27.44
2023-06-17T19:01:54.858Z,27.28
2023-06-17T19:04:21.912Z,27.13
2023-06-17T19:06:50.094Z,26.95
2023-06-17T19:09:16.930Z,26.79
2023-06-17T19:11:43.625Z,26.53
2023-06-17T19:14:10.362Z,26.44
2023-06-17T19:16:37.160Z,26.19
2023-06-17T19:19:03.859Z,26.02
2023-06-17T19:21:31.859Z,26.01
2023-06-17T19:23:58.532Z,25.61
2023-06-17T19:26:25.561Z,25.73
2023-06-17T19:28:52.601Z,25.72
2023-06-17T19:31:19.358Z,25.52
2023-06-17T19:33:46.259Z,25.57
2023-06-17T19:36:13.291Z,25.51
2023-06-17T19:38:40.043Z,25.07
2023-06-17T19:41:06.803Z,25.16
2023-06-17T19:43:34.785Z,24.94
2023-06-17T19:46:02.407Z,24.89
2023-06-17T19:48:29.664Z,24.77
2023-06-17T19:51:00.352Z,24.55
2023-06-17T19:53:27.393Z,24.56
2023-06-17T19:55:54.616Z,24.45
2023-06-17T19:58:22.316Z,24.17
2023-06-17T20:00:49.258Z,24.01
2023-06-17T20:03:16.819Z,24.14
2023-06-17T20:05:45.978Z,23.96
2023-06-17T20:08:14.242Z,23.99
2023-06-17T20:10:41.500Z,23.65
2023-06-17T20:13:08.487Z,23.78
2023-06-17T20:15:35.778Z,23.52
2023-06-17T20:18:03.654Z,23.54
2023-06-17T20:20:31.192Z,23.32
2023-06-17T20:22:57.921Z,23.39
2023-06-17T20:25:24.615Z,23.50
2023-06-17T20:27:51.457Z,23.40
2023-06-17T20:30:18.679Z,23.36
2023-06-17T20:32:45.485Z,23.28
2023-06-17T20:35:12.206Z,23.12
2023-06-17T20:37:39.073Z,23.11
2023-06-17T20:40:06.639Z,23.03
2023-06-17T20:42:33.353Z,22.91
2023-06-17T20:44:59.988Z,22.69
2023-06-17T20:47:27.302Z,22.58
2023-06-17T20:49:54.124Z,22.48
2023-06-17T20:52:21.108Z,22.49
2023-06-17T20:54:47.748Z,22.22
2023-06-17T20:57:14.622Z,22.30
2023-06-17T20:59:41.274Z,22.10
2023-06-17T21:02:08.129Z,22.10
2023-06-17T21:04:34.969Z,21.92
2023-06-17T21:07:01.687Z,21.76
2023-06-17T21:09:28.922Z,21.84
2023-06-17T21:11:55.782Z,21.61
2023-06-17T21:14:22.503Z,21.52
2023-06-17T21:16:49.547Z,21.50
2023-06-17T21:19:16.506Z,21.65
2023-06-17T21:21:43.298Z,21.66
2023-06-17T21:24:10.015Z,21.65
2023-06-17T21:26:36.928Z,21.56
2023-06-17T21:29:03.631Z,21.59
2023-06-17T21:31:30.372Z,21.50
2023-06-17T21:33:57.224Z,21.40
2023-06-17T21:36:24.191Z,21.37
2023-06-17T21:38:50.981Z,21.58
2023-06-17T21:41:17.761Z,21.56
2023-06-17T21:43:44.472Z,21.53
2023-06-17T21:46:11.253Z,21.59
2023-06-17T21:48:37.948Z,21.61
2023-06-17T21:51:04.629Z,21.56
2023-06-17T21:53:31.322Z,21.42
2023-06-17T21:55:58.080Z,21.28
2023-06-17T21:58:25.151Z,21.31
2023-06-17T22:00:52.067Z,21.30
2023-06-17T22:03:23.403Z,21.19
2023-06-17T22:05:50.712Z,21.22
2023-06-17T22:08:20.204Z,21.22
2023-06-17T22:10:49.334Z,21.21
2023-06-17T22:13:16.091Z,21.23
2023-06-17T22:15:42.842Z,21.23
2023-06-17T22:18:11.464Z,21.25
2023-06-17T22:20:38.077Z,21.34
2023-06-17T22:23:04.809Z,21.22
2023-06-17T22:25:31.630Z,21.32
2023-06-17T22:27:58.537Z,21.23
2023-06-17T22:30:25.264Z,21.26
2023-06-17T22:32:52.162Z,21.25
2023-06-17T22:35:18.886Z,21.22
2023-06-17T22:37:45.643Z,21.24
2023-06-17T22:40:14.935Z,21.20
2023-06-17T22:42:41.782Z,21.13
2023-06-17T22:45:08.859Z,20.91
2023-06-17T22:47:35.910Z,20.91
2023-06-17T22:50:05.075Z,20.75
2023-06-17T22:52:32.190Z,20.81
2023-06-17T22:55:00.925Z,20.64
2023-06-17T22:57:28.458Z,20.66
2023-06-17T22:59:55.230Z,20.65
2023-06-17T23:02:21.981Z,20.60
2023-06-17T23:04:49.421Z,20.60
2023-06-17T23:07:16.307Z,20.52
2023-06-17T23:09:42.981Z,20.43
2023-06-17T23:12:10.189Z,20.46
2023-06-17T23:14:36.935Z,20.50
2023-06-17T23:17:03.808Z,20.51
2023-06-17T23:19:30.529Z,20.33
2023-06-17T23:22:00.378Z,20.48
2023-06-17T23:24:27.710Z,20.42
2023-06-17T23:26:54.465Z,20.47
2023-06-17T23:29:21.193Z,20.42
2023-06-17T23:31:48.094Z,20.28
2023-06-17T23:34:15.617Z,20.44
2023-06-17T23:36:44.098Z,20.45
2023-06-17T23:39:11.048Z,20.46
2023-06-17T23:41:37.743Z,20.23
2023-06-17T23:44:04.792Z,20.41
2023-06-17T23:46:31.914Z,20.38
2023-06-17T23:48:58.907Z,20.31
2023-06-17T23:51:25.823Z,20.20
2023-06-17T23:53:52.504Z,20.13
2023-06-17T23:56:19.239Z,20.06
2023-06-17T23:58:46.185Z,20.13
